createdAt,value
2023-02-27T10:21:15.780Z,25.00
2023-02-27T10:23:16.732Z,25.00
2023-02-27T10:24:16.730Z,25.00
2023-02-27T10:25:30.363Z,25.00
2023-02-27T10:26:16.763Z,25.00
2023-02-27T10:27:16.782Z,25.00
2023-02-27T10:29:16.785Z,25.00
2023-02-27T10:31:16.702Z,0.00
2023-02-27T10:32:16.691Z,0.00
2023-02-27T10:33:17.027Z,0.00
2023-02-27T10:35:16.625Z,0.00
2023-02-27T10:36:30.910Z,0.00
2023-02-27T10:37:16.643Z,0.00
2023-02-27T10:38:17.920Z,0.00
2023-02-27T10:39:17.103Z,0.00
2023-02-27T10:40:16.582Z,0.00
2023-02-27T10:43:16.554Z,0.00
2023-02-27T10:44:19.764Z,0.00
2023-02-27T10:45:17.578Z,0.00
2023-02-27T10:46:16.626Z,0.00
2023-02-27T10:47:16.790Z,0.00
2023-02-27T10:48:16.504Z,0.00
2023-02-27T10:49:18.849Z,0.00
2023-02-27T10:50:16.484Z,0.00
2023-02-27T10:51:16.475Z,0.00
2023-02-27T10:52:16.467Z,0.00
2023-02-27T10:53:16.491Z,0.00
2023-02-27T10:54:16.791Z,0.00
2023-02-27T10:55:16.431Z,0.00
2023-02-27T10:56:16.437Z,0.00
2023-02-27T10:57:16.793Z,0.00
2023-02-27T10:58:16.408Z,0.00
2023-02-27T10:59:16.788Z,0.00
2023-02-27T11:00:16.452Z,0.00
2023-02-27T11:01:16.408Z,0.00
2023-02-27T11:02:16.378Z,0.00
2023-02-27T11:03:16.365Z,0.00
2023-02-27T11:04:16.815Z,0.00
2023-02-27T11:05:17.293Z,0.00
2023-02-27T11:06:16.338Z,0.00
2023-02-27T11:07:16.817Z,0.00
2023-02-27T11:09:16.817Z,0.00
2023-02-27T11:10:16.397Z,0.00
2023-02-27T11:11:16.289Z,0.00
2023-02-27T11:12:16.334Z,0.00
2023-02-27T11:13:16.274Z,0.00
2023-02-27T11:14:16.295Z,0.00
2023-02-27T11:15:16.258Z,0.00
2023-02-27T11:16:16.347Z,0.00
2023-02-27T11:17:16.234Z,0.00
2023-02-27T11:18:16.230Z,0.00
2023-02-27T11:19:16.297Z,0.00
2023-02-27T11:20:16.239Z,0.00
2023-02-27T11:21:16.325Z,0.00
2023-02-27T11:22:16.199Z,0.00
2023-02-27T11:23:16.185Z,0.00
2023-02-27T11:24:17.173Z,0.00
2023-02-27T11:25:16.197Z,0.00
2023-02-27T11:26:16.322Z,0.00
2023-02-27T11:27:16.160Z,0.00
2023-02-27T11:28:16.175Z,0.00
2023-02-27T11:29:16.199Z,24.35
2023-02-27T11:30:17.432Z,28.92
2023-02-27T11:31:16.212Z,30.90
2023-02-27T11:32:16.166Z,28.54
2023-02-27T11:33:16.305Z,25.04
2023-02-27T11:34:16.635Z,30.02
2023-02-27T11:35:16.308Z,28.76
2023-02-27T11:36:17.838Z,25.00
2023-02-27T11:37:16.503Z,27.27
2023-02-27T11:38:16.058Z,25.50
2023-02-27T11:39:16.049Z,27.41
2023-02-27T11:40:16.501Z,24.96
2023-02-27T11:41:16.066Z,20.07
2023-02-27T11:42:17.390Z,16.93
2023-02-27T11:43:16.322Z,25.00
2023-02-27T11:44:16.011Z,26.34
2023-02-27T11:45:15.990Z,25.85
2023-02-27T11:46:43.506Z,25.99
2023-02-27T11:47:16.038Z,26.22
2023-02-27T11:48:16.316Z,26.46
2023-02-27T11:49:15.953Z,25.90
2023-02-27T11:50:15.944Z,21.61
2023-02-27T11:51:15.942Z,20.40
2023-02-27T11:52:15.934Z,25.05
2023-02-27T11:53:16.328Z,27.72
2023-02-27T11:54:15.993Z,27.97
2023-02-27T11:55:15.952Z,27.34
2023-02-27T11:56:16.314Z,25.00
2023-02-27T11:57:15.916Z,27.45
2023-02-27T11:58:16.310Z,27.01
2023-02-27T11:59:15.874Z,27.57
2023-02-27T12:00:15.861Z,26.73
2023-02-27T12:01:16.841Z,30.38
2023-02-27T12:02:16.335Z,32.01
2023-02-27T12:03:15.863Z,28.74
2023-02-27T12:04:16.922Z,25.00
2023-02-27T12:05:15.818Z,25.87
2023-02-27T12:06:15.819Z,26.68
2023-02-27T12:07:15.798Z,26.71
2023-02-27T12:08:15.846Z,26.11
2023-02-27T12:09:15.786Z,28.70
2023-02-27T12:10:15.780Z,27.69
2023-02-27T12:11:15.831Z,25.53
2023-02-27T12:12:15.763Z,27.95
2023-02-27T12:13:15.834Z,30.89
2023-02-27T12:14:15.748Z,27.77
2023-02-27T12:15:15.733Z,25.27
2023-02-27T12:16:15.956Z,25.28
2023-02-27T12:17:15.712Z,25.00
2023-02-27T12:18:15.716Z,27.90
2023-02-27T12:19:15.699Z,27.28
2023-02-27T12:20:15.683Z,25.00
2023-02-27T12:21:15.844Z,30.03
2023-02-27T12:22:15.667Z,27.97
2023-02-27T12:23:15.660Z,25.23
2023-02-27T12:24:15.652Z,25.23
2023-02-27T12:25:15.661Z,27.86
2023-02-27T12:26:15.829Z,31.74
2023-02-27T12:27:15.626Z,29.96
2023-02-27T12:28:15.616Z,26.09
2023-02-27T12:29:15.649Z,27.02
2023-02-27T12:30:15.598Z,25.57
2023-02-27T12:31:15.837Z,33.36
2023-02-27T12:32:15.658Z,30.73
2023-02-27T12:33:15.570Z,36.57
2023-02-27T12:34:15.836Z,37.79
2023-02-27T12:35:15.552Z,34.57
2023-02-27T12:36:15.610Z,33.04
2023-02-27T12:37:15.834Z,31.65
2023-02-27T12:38:15.526Z,32.77
2023-02-27T12:39:15.517Z,31.19
2023-02-27T12:40:16.115Z,31.36
2023-02-27T12:41:16.049Z,35.82
2023-02-27T12:42:15.829Z,35.99
2023-02-27T12:43:15.495Z,38.58
2023-02-27T12:44:15.828Z,39.79
2023-02-27T12:45:15.496Z,39.49
2023-02-27T12:46:15.498Z,35.85
2023-02-27T12:47:16.340Z,37.36
2023-02-27T12:48:15.433Z,30.95
2023-02-27T12:49:15.443Z,25.00
2023-02-27T12:50:15.416Z,31.48
2023-02-27T12:51:15.411Z,30.67
2023-02-27T12:52:15.835Z,25.00
2023-02-27T12:53:15.393Z,28.22
2023-02-27T12:54:15.414Z,29.45
2023-02-27T12:55:15.369Z,31.60
2023-02-27T12:56:15.369Z,32.52
2023-02-27T12:57:15.832Z,40.14
2023-02-27T12:58:15.804Z,32.75
2023-02-27T12:59:15.554Z,38.37
2023-02-27T13:00:15.903Z,39.24
2023-02-27T13:01:15.940Z,37.96
2023-02-27T13:02:48.041Z,33.20
2023-02-27T13:04:16.606Z,34.61
2023-02-27T13:05:15.897Z,37.30
2023-02-27T13:06:15.812Z,26.98
2023-02-27T13:07:15.497Z,22.71
2023-02-27T13:08:15.532Z,25.00
2023-02-27T13:09:15.448Z,27.85
2023-02-27T13:10:15.388Z,27.97
2023-02-27T13:11:15.257Z,37.57
2023-02-27T13:12:15.261Z,44.88
2023-02-27T13:13:15.368Z,52.07
2023-02-27T13:14:15.254Z,58.78
2023-02-27T13:15:15.218Z,60.78
2023-02-27T13:16:15.247Z,71.07
2023-02-27T13:17:15.548Z,74.59
2023-02-27T13:18:15.371Z,83.42
2023-02-27T13:19:15.198Z,84.13
2023-02-27T13:20:15.474Z,76.99
2023-02-27T13:21:15.183Z,76.50
2023-02-27T13:22:15.177Z,68.81
2023-02-27T13:23:15.382Z,66.96
2023-02-27T13:24:15.183Z,78.36
2023-02-27T13:25:15.290Z,77.88
2023-02-27T13:26:15.244Z,73.27
2023-02-27T13:27:15.284Z,73.17
2023-02-27T13:28:15.481Z,77.38
2023-02-27T13:29:15.146Z,77.05
2023-02-27T13:30:15.227Z,77.65
2023-02-27T13:31:15.203Z,70.42
2023-02-27T13:32:15.332Z,67.09
2023-02-27T13:33:16.497Z,63.91
2023-02-27T13:34:15.531Z,70.05
2023-02-27T13:35:15.456Z,64.21
2023-02-27T13:36:15.233Z,69.48
2023-02-27T13:37:15.371Z,66.65
2023-02-27T13:38:15.592Z,63.55
2023-02-27T13:39:15.886Z,60.73
2023-02-27T13:40:15.613Z,62.49
2023-02-27T13:44:15.417Z,56.06
2023-02-27T13:45:15.323Z,58.03
2023-02-27T13:46:15.192Z,61.91
2023-02-27T13:47:15.490Z,62.65
2023-02-27T13:49:28.156Z,61.01
2023-02-27T13:50:15.354Z,61.41
2023-02-27T13:51:15.947Z,63.01
2023-02-27T13:52:15.327Z,65.88
2023-02-27T13:53:15.416Z,72.00
2023-02-27T13:54:15.234Z,66.63
2023-02-27T13:55:15.502Z,76.02
2023-02-27T13:56:15.126Z,78.40
2023-02-27T13:58:15.257Z,73.19
2023-02-27T13:59:15.315Z,72.39
2023-02-27T14:00:15.160Z,77.47
2023-02-27T14:01:15.319Z,76.10
2023-02-27T14:02:15.355Z,71.56
2023-02-27T14:03:15.255Z,59.78
2023-02-27T14:04:15.295Z,65.33
2023-02-27T14:07:15.298Z,68.50
2023-02-27T14:08:15.255Z,71.82
2023-02-27T14:11:14.865Z,77.07
2023-02-27T14:12:15.268Z,70.76
2023-02-27T14:13:15.259Z,66.46
2023-02-27T14:15:15.163Z,72.25
2023-02-27T14:18:28.845Z,68.33
2023-02-27T14:19:15.037Z,68.44
2023-02-27T14:21:15.011Z,52.96
2023-02-27T14:22:15.197Z,49.81
2023-02-27T14:23:15.102Z,61.63
2023-02-27T14:24:15.055Z,65.65
2023-02-27T14:26:15.051Z,71.81
2023-02-27T14:27:15.356Z,25.00
2023-02-27T14:28:15.729Z,0.00
2023-02-27T14:30:15.189Z,0.00
2023-02-27T14:32:15.097Z,25.00
2023-02-27T14:33:16.709Z,68.73
2023-02-27T14:35:15.116Z,76.44
2023-02-27T14:36:15.229Z,88.37
2023-02-27T14:37:15.443Z,112.54
2023-02-27T14:38:15.068Z,152.79
2023-02-27T14:39:15.120Z,160.44
2023-02-27T14:40:21.299Z,172.56
2023-02-27T14:41:15.969Z,172.79
2023-02-27T14:42:14.882Z,173.14
2023-02-27T14:43:14.922Z,177.49
2023-02-27T14:44:15.032Z,200.91
2023-02-27T14:45:15.099Z,282.42
2023-02-27T14:46:15.142Z,421.44
2023-02-27T14:47:15.028Z,269.87
2023-02-27T14:52:14.897Z,262.68
2023-02-27T15:03:14.946Z,214.59
2023-02-27T15:09:14.812Z,194.18
2023-02-27T15:11:14.613Z,191.20
2023-02-27T15:12:14.734Z,187.30
2023-02-27T15:32:15.454Z,145.20
2023-02-27T15:33:15.040Z,150.98
2023-02-27T15:38:15.085Z,137.97
2023-02-27T15:43:15.209Z,123.73
2023-02-27T20:02:11.583Z,148.07
2023-02-27T20:03:11.579Z,148.95
2023-02-27T20:11:11.503Z,149.53
2023-02-27T20:21:11.430Z,148.00
2023-02-27T20:23:11.392Z,148.30
2023-02-27T20:24:11.389Z,148.92
2023-02-27T20:27:11.358Z,149.71
2023-02-27T20:41:11.247Z,147.41
2023-02-27T20:52:11.141Z,147.92
2023-02-27T20:53:11.126Z,146.84
2023-02-27T21:00:11.064Z,146.87
2023-02-27T21:05:11.072Z,147.55
2023-02-27T21:07:11.006Z,146.38
2023-02-27T21:11:10.966Z,145.96
2023-02-27T21:13:10.951Z,145.94
2023-02-27T21:16:10.996Z,145.77
2023-02-27T21:33:10.790Z,144.30
2023-02-27T21:35:10.750Z,146.00
2023-02-27T21:40:10.709Z,145.07
2023-02-27T21:45:10.655Z,145.31
2023-02-27T21:46:10.747Z,144.87
2023-02-27T21:49:10.650Z,145.17
2023-02-27T21:56:10.558Z,145.51
2023-02-27T22:01:10.603Z,145.72
2023-02-27T22:03:10.497Z,144.35
2023-02-27T22:29:10.259Z,144.64
2023-02-27T22:30:10.251Z,145.09
2023-02-27T22:36:10.203Z,144.72
2023-02-27T22:52:10.056Z,143.79
2023-02-27T23:10:09.894Z,145.24
2023-02-27T23:30:09.712Z,143.71
2023-02-27T23:35:09.667Z,143.94
2023-02-27T23:39:09.639Z,144.30
2023-02-27T23:40:09.622Z,143.98
2023-02-27T23:41:09.667Z,143.16
2023-02-27T23:42:09.614Z,143.13
2023-02-27T23:48:09.551Z,143.32
2023-02-27T23:57:09.495Z,142.90
